Time;durP1;ratioP1;P1;durP2;ratioP2;P2;SDS_P1;SDS_P2;PMS_P1;PMS_P2;Temp;Humidity;BMP_temperature;BMP_pressure;BME280_temperature;BME280_humidity;BME280_pressure;Samples;Min_cycle;Max_cycle;Signal;HPM_P1;HPM_P2
2022/08/06 00:01:59;;;;;;;5.50;1.90;;;12.40;99.90;;;;;;5017821;28;20029;-79
2022/08/06 00:04:25;;;;;;;4.35;2.25;;;12.30;99.90;;;;;;5012213;28;20045;-79
2022/08/06 00:06:51;;;;;;;5.15;2.10;;;12.20;99.90;;;;;;5014515;28;20029;-79
2022/08/06 00:09:17;;;;;;;6.10;2.13;;;12.20;99.90;;;;;;5016016;28;20361;-79
2022/08/06 00:11:43;;;;;;;5.10;1.90;;;12.10;99.90;;;;;;5008892;28;20048;-78
2022/08/06 00:14:09;;;;;;;5.07;2.05;;;12.10;99.90;;;;;;5015817;28;20042;-78
2022/08/06 00:16:35;;;;;;;5.40;1.98;;;12.00;99.90;;;;;;5009947;28;20555;-79
2022/08/06 00:19:01;;;;;;;7.38;2.30;;;12.00;99.90;;;;;;4995239;28;20050;-79
2022/08/06 00:21:26;;;;;;;3.58;1.92;;;11.90;99.90;;;;;;5006688;28;20049;-78
2022/08/06 00:23:55;;;;;;;4.80;1.83;;;11.90;99.90;;;;;;5000393;28;20080;-78
2022/08/06 00:26:21;;;;;;;7.63;2.97;;;11.90;99.90;;;;;;4994624;28;20100;-78
2022/08/06 00:28:50;;;;;;;4.55;2.28;;;11.80;99.90;;;;;;4995853;28;20509;-78
2022/08/06 00:31:17;;;;;;;5.10;3.05;;;11.80;99.90;;;;;;4998038;28;20057;-78
2022/08/06 00:33:42;;;;;;;7.65;2.72;;;11.80;99.90;;;;;;5013805;28;20048;-78
2022/08/06 00:36:09;;;;;;;8.63;2.80;;;11.70;99.90;;;;;;5014560;28;20413;-78
2022/08/06 00:38:35;;;;;;;8.43;3.45;;;11.70;99.90;;;;;;4997755;28;20054;-78
2022/08/06 00:41:02;;;;;;;5.40;2.40;;;11.70;99.90;;;;;;5002877;28;20340;-78
2022/08/06 00:43:28;;;;;;;5.07;2.45;;;11.70;99.90;;;;;;5014577;28;20136;-78
2022/08/06 00:45:54;;;;;;;4.65;2.08;;;11.60;99.90;;;;;;5013425;28;20440;-77
2022/08/06 00:48:20;;;;;;;6.47;2.17;;;11.60;99.90;;;;;;5010663;28;20629;-79
2022/08/06 00:50:46;;;;;;;7.78;3.60;;;11.60;99.90;;;;;;5015211;28;20052;-79
2022/08/06 00:53:12;;;;;;;9.50;3.97;;;11.50;99.90;;;;;;5006451;28;20293;-78
2022/08/06 00:55:37;;;;;;;5.93;2.92;;;11.50;99.90;;;;;;5013228;28;20213;-79
2022/08/06 00:58:04;;;;;;;6.35;3.03;;;11.40;99.90;;;;;;4996293;28;20041;-79
2022/08/06 01:00:31;;;;;;;4.20;2.67;;;11.30;99.90;;;;;;5011030;28;20045;-79
2022/08/06 01:02:57;;;;;;;5.10;3.22;;;11.30;99.90;;;;;;5001240;28;20136;-79
2022/08/06 01:05:26;;;;;;;4.00;2.00;;;11.30;99.90;;;;;;4999121;28;20475;-79
2022/08/06 01:07:54;;;;;;;4.40;1.58;;;11.30;99.90;;;;;;5020817;28;20041;-78
2022/08/06 01:10:21;;;;;;;6.25;2.95;;;11.30;99.90;;;;;;5018502;28;20112;-79
2022/08/06 01:12:48;;;;;;;4.65;2.45;;;11.30;99.90;;;;;;4996720;28;20061;-78
2022/08/06 01:15:13;;;;;;;4.93;2.92;;;11.30;99.90;;;;;;5002931;28;20046;-78
2022/08/06 01:18:00;;;;;;;11.38;3.38;;;11.30;99.90;;;;;;4993348;28;20058;-78
2022/08/06 01:20:49;;;;;;;5.35;3.20;;;11.20;99.90;;;;;;5007931;28;20045;-79
2022/08/06 01:23:43;;;;;;;6.95;3.17;;;11.20;99.90;;;;;;5018081;28;20504;-79
2022/08/06 01:26:08;;;;;;;6.90;3.28;;;11.20;99.90;;;;;;5011258;28;20119;-78
2022/08/06 01:28:58;;;;;;;5.78;3.10;;;11.00;99.90;;;;;;5017131;28;20448;-78
2022/08/06 01:31:49;;;;;;;6.43;3.70;;;11.00;99.90;;;;;;5014041;28;20081;-78
2022/08/06 01:34:37;;;;;;;6.32;2.50;;;10.90;99.90;;;;;;5019025;28;21081;-79
2022/08/06 01:37:21;;;;;;;6.32;4.15;;;10.80;99.90;;;;;;5012675;28;20045;-78
2022/08/06 01:39:58;;;;;;;4.95;2.92;;;10.80;99.90;;;;;;4995127;28;20159;-78
2022/08/06 01:42:26;;;;;;;6.43;2.92;;;10.80;99.90;;;;;;5008059;28;20034;-78
2022/08/06 01:45:00;;;;;;;6.72;4.18;;;10.80;99.90;;;;;;5011385;28;20465;-78
2022/08/06 01:47:30;;;;;;;6.85;4.80;;;10.70;99.90;;;;;;5006921;28;20073;-78
2022/08/06 01:50:01;;;;;;;6.50;3.22;;;10.70;99.90;;;;;;5009381;28;20128;-78
2022/08/06 01:52:28;;;;;;;3.95;2.78;;;10.60;99.90;;;;;;5011836;28;20372;-78
2022/08/06 01:54:58;;;;;;;4.47;3.00;;;10.60;99.90;;;;;;5007845;28;20426;-79
2022/08/06 01:57:26;;;;;;;4.20;2.55;;;10.60;99.90;;;;;;5002698;28;20068;-78
2022/08/06 01:59:56;;;;;;;4.70;2.72;;;10.60;99.90;;;;;;5007323;28;20496;-79
2022/08/06 02:02:28;;;;;;;7.55;3.88;;;10.70;99.90;;;;;;5016928;28;20065;-79
2022/08/06 02:04:57;;;;;;;6.90;5.18;;;10.70;99.90;;;;;;5005743;28;20045;-79
2022/08/06 02:07:27;;;;;;;6.90;4.50;;;10.70;99.90;;;;;;5038794;28;20148;-79
2022/08/06 02:09:54;;;;;;;5.80;4.05;;;10.60;99.90;;;;;;5022516;28;20053;-79
2022/08/06 02:12:24;;;;;;;6.63;3.05;;;10.60;99.90;;;;;;5022961;28;20383;-79
2022/08/06 02:15:24;;;;;;;6.60;4.25;;;10.50;99.90;;;;;;5034370;28;20072;-78
2022/08/06 02:17:53;;;;;;;5.38;3.60;;;10.50;99.90;;;;;;5016155;28;20060;-78
2022/08/06 02:20:48;;;;;;;8.85;4.03;;;10.40;99.90;;;;;;5028260;28;20045;-78
2022/08/06 02:23:23;;;;;;;5.43;3.30;;;10.50;99.90;;;;;;5007808;28;20045;-78
2022/08/06 02:25:52;;;;;;;5.60;2.63;;;10.50;99.90;;;;;;5007060;28;20045;-78
2022/08/06 02:28:20;;;;;;;3.45;2.55;;;10.50;99.90;;;;;;5018036;28;20120;-78
2022/08/06 02:30:52;;;;;;;5.10;2.72;;;10.50;99.90;;;;;;5016868;28;20103;-78
2022/08/06 02:33:19;;;;;;;4.50;3.55;;;10.50;99.90;;;;;;5024542;28;20067;-78
2022/08/06 02:35:51;;;;;;;6.88;5.07;;;10.50;99.90;;;;;;5023912;28;20169;-79
2022/08/06 02:38:43;;;;;;;7.55;5.85;;;10.40;99.90;;;;;;5004076;28;20050;-79
2022/08/06 02:41:20;;;;;;;9.43;6.30;;;10.40;99.90;;;;;;5033919;28;20058;-79
2022/08/06 02:44:04;;;;;;;7.30;4.78;;;10.30;99.90;;;;;;5020448;28;20061;-78
2022/08/06 02:46:38;;;;;;;11.05;9.05;;;10.20;99.90;;;;;;5021391;28;20195;-79
2022/08/06 02:49:12;;;;;;;12.70;11.02;;;10.20;99.90;;;;;;5036946;28;20054;-79
2022/08/06 02:51:47;;;;;;;8.30;7.03;;;10.10;99.90;;;;;;5016923;28;20095;-79
2022/08/06 02:54:23;;;;;;;9.70;7.97;;;10.10;99.90;;;;;;5022614;28;20162;-78
2022/08/06 02:56:54;;;;;;;10.05;8.57;;;10.00;99.90;;;;;;5020060;28;20038;-79
2022/08/06 02:59:27;;;;;;;10.40;9.00;;;10.00;99.90;;;;;;5025679;28;20073;-79
2022/08/06 03:02:02;;;;;;;12.77;9.45;;;9.90;99.90;;;;;;5025474;28;20057;-78
2022/08/06 03:04:31;;;;;;;8.23;7.38;;;9.90;99.90;;;;;;5019459;28;20598;-78
2022/08/06 03:06:59;;;;;;;9.80;8.32;;;9.80;99.90;;;;;;5020074;28;20057;-79
2022/08/06 03:09:25;;;;;;;6.90;5.28;;;9.80;99.90;;;;;;5025548;28;20050;-80
2022/08/06 03:11:55;;;;;;;9.00;7.97;;;9.80;99.90;;;;;;5017917;28;20577;-79
2022/08/06 03:14:25;;;;;;;9.77;8.07;;;9.80;99.90;;;;;;5018199;28;20108;-79
2022/08/06 03:16:53;;;;;;;7.97;7.07;;;9.70;99.90;;;;;;5024854;28;20476;-79
2022/08/06 03:19:21;;;;;;;10.10;8.25;;;9.70;99.90;;;;;;5007875;28;20048;-79
2022/08/06 03:21:48;;;;;;;8.00;6.50;;;9.70;99.90;;;;;;5019421;28;20106;-80
2022/08/06 03:24:15;;;;;;;8.35;5.75;;;9.70;99.90;;;;;;5033840;28;20046;-79
2022/08/06 03:26:42;;;;;;;9.88;8.95;;;9.70;99.90;;;;;;5033919;28;20515;-78
2022/08/06 03:29:09;;;;;;;9.40;7.45;;;9.80;99.90;;;;;;4971159;28;20045;-79
2022/08/06 03:31:36;;;;;;;9.90;7.72;;;9.80;99.90;;;;;;5018341;28;20042;-79
2022/08/06 03:34:03;;;;;;;8.75;7.88;;;9.80;99.90;;;;;;5012828;28;20037;-79
2022/08/06 03:36:29;;;;;;;12.43;10.02;;;9.80;99.90;;;;;;5007382;28;20762;-80
2022/08/06 03:39:00;;;;;;;5.32;4.88;;;9.70;99.90;;;;;;5003229;28;20048;-79
2022/08/06 03:41:28;;;;;;;5.85;5.10;;;9.70;99.90;;;;;;5019310;28;20125;-79
2022/08/06 03:43:53;;;;;;;7.22;5.07;;;9.80;99.90;;;;;;5011469;28;20054;-80
2022/08/06 03:46:44;;;;;;;4.85;4.00;;;9.80;99.90;;;;;;5023589;28;20492;-79
2022/08/06 03:49:35;;;;;;;5.03;4.05;;;9.90;99.90;;;;;;5038870;28;20045;-79
2022/08/06 03:52:01;;;;;;;;;;;9.90;99.90;;;;;;5022822;28;20100;-79
2022/08/06 03:54:31;;;;;;;5.22;4.00;;;9.90;99.90;;;;;;5024714;28;19929;-80
2022/08/06 03:57:03;;;;;;;6.18;4.63;;;9.90;99.90;;;;;;5020688;28;20072;-79
2022/08/06 03:59:30;;;;;;;5.53;4.60;;;9.90;99.90;;;;;;5022196;28;20061;-79
2022/08/06 04:01:59;;;;;;;5.93;4.82;;;10.00;99.90;;;;;;5019224;28;20120;-79
2022/08/06 04:04:26;;;;;;;5.45;3.90;;;9.90;99.90;;;;;;5019790;28;20081;-79
2022/08/06 04:06:57;;;;;;;9.20;6.95;;;9.90;99.90;;;;;;5025864;28;20045;-79
2022/08/06 04:09:25;;;;;;;5.82;4.90;;;9.90;99.90;;;;;;5020012;28;20103;-79
2022/08/06 04:11:52;;;;;;;6.60;3.95;;;9.80;99.90;;;;;;5018762;28;20042;-79
2022/08/06 04:14:19;;;;;;;6.13;4.90;;;9.80;99.90;;;;;;5017583;28;20049;-79
2022/08/06 04:16:45;;;;;;;5.35;4.40;;;9.80;99.90;;;;;;5018521;28;20044;-79
2022/08/06 04:19:14;;;;;;;5.65;4.55;;;9.80;99.90;;;;;;5019917;28;20069;-80
2022/08/06 04:21:40;;;;;;;8.00;6.90;;;9.80;99.90;;;;;;5018600;28;20042;-80
2022/08/06 04:24:06;;;;;;;5.47;4.95;;;9.80;99.90;;;;;;4986280;28;20496;-80
2022/08/06 04:26:33;;;;;;;5.90;5.30;;;9.80;99.90;;;;;;5007176;28;20049;-80
2022/08/06 04:29:04;;;;;;;6.20;5.20;;;9.80;99.90;;;;;;5023062;28;20061;-80
2022/08/06 04:31:32;;;;;;;6.70;5.00;;;9.80;99.90;;;;;;5017643;28;20491;-80
2022/08/06 04:34:00;;;;;;;5.72;4.82;;;9.90;99.90;;;;;;5017601;28;20550;-80
2022/08/06 04:36:27;;;;;;;6.18;4.72;;;10.00;99.90;;;;;;5013224;28;20049;-80
2022/08/06 04:38:53;;;;;;;6.47;4.90;;;10.00;99.90;;;;;;5020328;28;20453;-79
2022/08/06 04:41:19;;;;;;;7.65;6.93;;;10.10;99.90;;;;;;5018158;28;20072;-79
2022/08/06 04:43:46;;;;;;;8.38;6.30;;;10.10;99.90;;;;;;5019030;28;20057;-79
2022/08/06 04:46:13;;;;;;;7.82;6.05;;;10.00;99.90;;;;;;5002278;28;20045;-79
2022/08/06 04:48:38;;;;;;;7.05;5.03;;;10.00;99.90;;;;;;5011842;28;20056;-80
2022/08/06 04:51:07;;;;;;;6.47;5.20;;;10.10;99.90;;;;;;5017139;28;20057;-80
2022/08/06 04:53:38;;;;;;;6.07;5.00;;;10.10;99.90;;;;;;5020749;28;20041;-79
2022/08/06 04:56:06;;;;;;;5.53;5.00;;;10.20;99.90;;;;;;5039111;28;20320;-79
2022/08/06 04:58:32;;;;;;;10.45;9.07;;;10.20;99.90;;;;;;5022996;28;20455;-78
2022/08/06 05:00:58;;;;;;;10.27;7.07;;;10.30;99.90;;;;;;5018030;28;20125;-80
2022/08/06 05:03:24;;;;;;;8.88;8.07;;;10.30;99.90;;;;;;5017789;28;20469;-80
2022/08/06 05:06:19;;;;;;;11.52;8.70;;;10.30;99.90;;;;;;4982964;28;20041;-80
2022/08/06 05:08:53;;;;;;;6.45;5.70;;;10.30;99.90;;;;;;5028244;28;20555;-80
2022/08/06 05:11:28;;;;;;;6.57;5.78;;;10.30;99.90;;;;;;5019803;28;20045;-80
2022/08/06 05:14:05;;;;;;;6.38;5.55;;;10.40;99.90;;;;;;5017999;28;20042;-80
2022/08/06 05:16:36;;;;;;;6.25;5.65;;;10.40;99.90;;;;;;5013749;28;20064;-80
2022/08/06 05:19:08;;;;;;;5.63;5.13;;;10.50;99.90;;;;;;5013039;28;20456;-80
2022/08/06 05:21:37;;;;;;;6.28;5.43;;;10.60;99.90;;;;;;5018321;28;20447;-80
2022/08/06 05:24:03;;;;;;;6.97;6.00;;;10.60;99.90;;;;;;5022243;28;20049;-80
2022/08/06 05:26:30;;;;;;;6.80;5.70;;;10.70;99.90;;;;;;5022701;28;20054;-79
2022/08/06 05:28:56;;;;;;;6.88;5.10;;;10.80;99.90;;;;;;5015797;28;20069;-79
2022/08/06 05:31:39;;;;;;;6.57;5.10;;;10.90;99.90;;;;;;5012398;28;20575;-80
2022/08/06 05:34:09;;;;;;;5.70;4.78;;;11.00;99.90;;;;;;5022181;28;20401;-80
2022/08/06 05:36:36;;;;;;;8.00;5.53;;;11.00;99.90;;;;;;5018826;28;20067;-79
2022/08/06 05:39:02;;;;;;;6.45;5.05;;;11.10;99.90;;;;;;5006218;28;20499;-79
2022/08/06 05:41:28;;;;;;;6.15;5.55;;;11.10;99.90;;;;;;5012461;28;20056;-80
2022/08/06 05:43:54;;;;;;;5.60;4.72;;;11.10;99.90;;;;;;5001328;28;20563;-79
2022/08/06 05:46:22;;;;;;;6.72;5.28;;;11.20;99.90;;;;;;5004600;28;20073;-79
2022/08/06 05:48:55;;;;;;;8.00;5.82;;;11.30;99.90;;;;;;5012962;28;20044;-79
2022/08/06 05:51:47;;;;;;;9.40;5.45;;;11.30;99.90;;;;;;5024096;28;20049;-80
2022/08/06 05:54:52;;;;;;;7.45;5.05;;;11.50;99.90;;;;;;5038727;28;20060;-79
2022/08/06 05:57:42;;;;;;;5.40;4.85;;;11.50;99.90;;;;;;5004920;28;20045;-79
2022/08/06 06:00:12;;;;;;;5.35;4.07;;;11.60;99.90;;;;;;5024866;28;20041;-80
2022/08/06 06:02:45;;;;;;;6.10;4.30;;;11.70;99.90;;;;;;5009403;28;20049;-79
2022/08/06 06:05:12;;;;;;;5.55;4.22;;;11.90;99.90;;;;;;5022384;28;20048;-79
2022/08/06 06:07:39;;;;;;;6.50;3.80;;;11.90;99.90;;;;;;4980470;28;20137;-79
2022/08/06 06:10:07;;;;;;;5.15;4.03;;;12.00;99.90;;;;;;5024388;28;20518;-80
2022/08/06 06:12:34;;;;;;;7.75;4.20;;;12.00;99.90;;;;;;5015180;28;20058;-77
2022/08/06 06:15:01;;;;;;;5.80;3.45;;;12.10;99.90;;;;;;5028520;28;20056;-79
2022/08/06 06:17:54;;;;;;;5.78;3.55;;;12.20;99.90;;;;;;5024270;28;20083;-79
2022/08/06 06:20:46;;;;;;;5.10;3.20;;;12.30;99.90;;;;;;5021872;28;20045;-79
2022/08/06 06:23:31;;;;;;;4.75;3.17;;;12.40;99.90;;;;;;5023237;28;20049;-79
2022/08/06 06:26:34;;;;;;;5.18;3.78;;;12.60;99.90;;;;;;5021036;28;20409;-79
2022/08/06 06:29:28;;;;;;;5.45;2.95;;;12.80;99.90;;;;;;5007017;28;20160;-79
2022/08/06 06:32:06;;;;;;;3.75;2.38;;;13.00;99.90;;;;;;5011098;28;20042;-79
2022/08/06 06:34:57;;;;;;;3.92;1.95;;;13.10;99.90;;;;;;5018535;28;20041;-79
2022/08/06 06:37:50;;;;;;;4.32;1.67;;;13.30;99.90;;;;;;5021124;28;20507;-79
2022/08/06 06:40:43;;;;;;;3.67;1.67;;;13.50;99.90;;;;;;5001030;28;20049;-79
2022/08/06 06:43:15;;;;;;;4.05;2.00;;;13.70;99.90;;;;;;5016325;28;20062;-79
2022/08/06 06:46:05;;;;;;;3.78;1.73;;;13.80;99.90;;;;;;5024738;28;20033;-79
2022/08/06 06:48:43;;;;;;;3.70;1.63;;;14.00;99.90;;;;;;5015830;28;20133;-79
2022/08/06 06:51:20;;;;;;;3.83;1.50;;;14.20;99.90;;;;;;5017059;28;20042;-78
2022/08/06 06:53:48;;;;;;;5.72;2.67;;;14.40;99.90;;;;;;5020296;28;20073;-79
2022/08/06 06:56:19;;;;;;;3.67;2.38;;;14.60;99.90;;;;;;5019971;28;20083;-76
2022/08/06 06:58:59;;;;;;;4.05;2.55;;;14.70;99.90;;;;;;5020196;28;20103;-77
2022/08/06 07:01:28;;;;;;;4.43;2.33;;;14.90;99.90;;;;;;5026555;28;20527;-76
2022/08/06 07:03:55;;;;;;;3.55;2.17;;;15.00;99.90;;;;;;5022083;28;20889;-77
2022/08/06 07:06:26;;;;;;;3.60;1.50;;;15.10;99.90;;;;;;5017900;28;20099;-76
2022/08/06 07:08:52;;;;;;;;;;;15.20;99.90;;;;;;5023949;28;20060;-79
2022/08/06 07:11:22;;;;;;;2.70;1.00;;;15.40;99.90;;;;;;5016170;28;19920;-79
2022/08/06 07:13:50;;;;;;;3.90;1.25;;;15.50;99.90;;;;;;5015466;28;20575;-78
2022/08/06 07:16:20;;;;;;;2.65;1.27;;;15.60;99.90;;;;;;5024791;28;20065;-78
2022/08/06 07:18:47;;;;;;;2.58;1.02;;;15.70;99.90;;;;;;5018383;28;20366;-79
2022/08/06 07:21:16;;;;;;;1.23;0.73;;;15.90;99.90;;;;;;5024113;28;20053;-78
2022/08/06 07:23:45;;;;;;;2.95;0.90;;;16.00;99.90;;;;;;5015755;28;20075;-78
2022/08/06 07:26:14;;;;;;;4.22;1.00;;;16.20;99.90;;;;;;5021771;28;20104;-78
2022/08/06 07:28:42;;;;;;;3.08;0.93;;;16.30;99.90;;;;;;5020665;28;20424;-78
2022/08/06 07:31:08;;;;;;;2.63;0.98;;;16.40;99.90;;;;;;5017343;28;20081;-78
2022/08/06 07:33:35;;;;;;;2.40;0.70;;;16.60;99.90;;;;;;5036932;28;20038;-78
2022/08/06 07:36:01;;;;;;;5.25;1.35;;;16.80;99.90;;;;;;5024972;28;20053;-78
2022/08/06 07:38:28;;;;;;;3.55;1.02;;;16.90;99.90;;;;;;5016008;28;20029;-78
2022/08/06 07:41:01;;;;;;;3.25;1.02;;;17.00;99.90;;;;;;4998447;28;20045;-78
2022/08/06 07:43:40;;;;;;;2.75;1.13;;;17.10;99.90;;;;;;5023665;28;20034;-78
2022/08/06 07:46:07;;;;;;;3.78;0.85;;;17.30;99.90;;;;;;5032851;28;20045;-78
2022/08/06 07:48:43;;;;;;;1.98;0.70;;;17.30;99.90;;;;;;5016273;28;20045;-78
2022/08/06 07:51:09;;;;;;;3.42;0.63;;;17.40;99.90;;;;;;5023962;28;20518;-78
2022/08/06 07:53:38;;;;;;;2.42;0.70;;;17.40;99.90;;;;;;5021231;28;20061;-79
2022/08/06 07:56:09;;;;;;;2.92;0.52;;;17.40;99.90;;;;;;5016923;28;20469;-78
2022/08/06 07:58:37;;;;;;;2.08;0.50;;;17.40;99.90;;;;;;5023720;28;20467;-79
2022/08/06 08:01:03;;;;;;;1.77;0.57;;;17.40;99.90;;;;;;5017016;28;20515;-79
2022/08/06 08:06:21;;;;;;;2.17;0.40;;;17.80;99.90;;;;;;5011299;28;20045;-78
2022/08/06 08:08:50;;;;;;;2.95;0.40;;;18.00;99.90;;;;;;5010064;28;20067;-78
2022/08/06 08:11:17;;;;;;;3.30;0.90;;;18.00;99.90;;;;;;5020843;28;20068;-78
2022/08/06 08:13:43;;;;;;;3.88;0.55;;;17.90;99.90;;;;;;5038452;28;20072;-78
2022/08/06 08:16:13;;;;;;;3.50;0.82;;;17.70;99.90;;;;;;5016280;28;20784;-78
2022/08/06 08:18:39;;;;;;;3.05;0.80;;;17.70;99.90;;;;;;5025083;28;20045;-78
2022/08/06 08:21:06;;;;;;;4.40;0.50;;;17.90;99.90;;;;;;5021523;28;20044;-77
2022/08/06 08:23:34;;;;;;;5.13;0.80;;;18.10;99.90;;;;;;5009441;28;20065;-77
2022/08/06 08:26:01;;;;;;;2.20;0.70;;;18.40;99.90;;;;;;5017037;28;20065;-76
2022/08/06 08:28:28;;;;;;;1.52;0.60;;;18.70;99.90;;;;;;5017547;28;20132;-76
2022/08/06 08:30:58;;;;;;;4.10;1.00;;;18.80;99.90;;;;;;5016524;28;20459;-76
2022/08/06 08:33:25;;;;;;;2.42;0.70;;;19.00;99.90;;;;;;5011581;28;20046;-76
2022/08/06 08:35:51;;;;;;;1.98;0.75;;;18.90;99.90;;;;;;5015054;28;20045;-78
2022/08/06 08:38:20;;;;;;;3.97;0.60;;;18.80;99.90;;;;;;5016634;28;20049;-77
2022/08/06 08:40:47;;;;;;;1.48;0.50;;;18.60;99.90;;;;;;5012788;28;20522;-77
2022/08/06 08:43:21;;;;;;;2.72;0.65;;;18.50;99.90;;;;;;5021658;28;20045;-77
2022/08/06 08:45:51;;;;;;;6.20;0.95;;;18.50;99.90;;;;;;5015207;28;20053;-78
2022/08/06 08:48:28;;;;;;;21.60;3.00;;;18.60;99.90;;;;;;5016554;28;20045;-78
2022/08/06 08:50:58;;;;;;;26.60;2.58;;;18.80;99.90;;;;;;5021605;28;20542;-77
2022/08/06 08:53:43;;;;;;;16.95;2.50;;;19.10;99.90;;;;;;5022101;28;20492;-77
2022/08/06 08:56:22;;;;;;;3.28;0.80;;;19.20;99.90;;;;;;5006793;28;20182;-76
2022/08/06 08:58:48;;;;;;;3.22;1.00;;;19.30;99.90;;;;;;5018537;28;20488;-76
2022/08/06 09:01:16;;;;;;;2.65;1.10;;;19.40;99.90;;;;;;5017528;28;20049;-77
2022/08/06 09:03:42;;;;;;;4.55;1.67;;;19.50;99.90;;;;;;5017477;28;20121;-75
2022/08/06 09:06:08;;;;;;;4.40;1.60;;;19.40;99.90;;;;;;5011072;28;20045;-78
2022/08/06 09:08:36;;;;;;;3.85;1.60;;;19.30;99.90;;;;;;5017455;28;20040;-78
2022/08/06 09:11:03;;;;;;;4.05;2.00;;;19.20;99.90;;;;;;5019675;28;20128;-78
2022/08/06 09:13:30;;;;;;;4.68;1.70;;;19.00;99.90;;;;;;5016667;28;20038;-77
2022/08/06 09:15:57;;;;;;;4.10;2.00;;;18.80;99.90;;;;;;5009764;28;20726;-78
2022/08/06 09:18:25;;;;;;;3.75;1.60;;;18.80;99.90;;;;;;5024537;28;20033;-79
2022/08/06 09:20:55;;;;;;;2.90;1.42;;;19.00;99.90;;;;;;5012582;28;20787;-78
2022/08/06 09:23:20;;;;;;;3.13;1.45;;;19.30;99.90;;;;;;5011386;28;20511;-78
2022/08/06 09:25:50;;;;;;;5.55;2.30;;;19.60;99.90;;;;;;5008076;28;20137;-78
2022/08/06 09:28:37;;;;;;;4.05;1.95;;;19.90;99.90;;;;;;5008777;28;20558;-78
2022/08/06 09:31:11;;;;;;;3.30;1.80;;;20.10;99.90;;;;;;5012095;28;20053;-78
2022/08/06 09:33:42;;;;;;;3.45;1.75;;;20.30;99.50;;;;;;5013224;28;20577;-77
2022/08/06 09:36:16;;;;;;;5.68;1.80;;;20.50;99.90;;;;;;5011944;28;20160;-77
2022/08/06 09:38:56;;;;;;;5.70;2.28;;;20.70;99.90;;;;;;5015318;28;20043;-77
2022/08/06 09:41:24;;;;;;;6.13;2.28;;;20.90;98.70;;;;;;5008283;28;20053;-78
2022/08/06 09:43:55;;;;;;;8.45;2.42;;;21.00;97.00;;;;;;5008057;28;20049;-76
2022/08/06 09:46:39;;;;;;;3.97;1.77;;;21.20;96.40;;;;;;5017837;28;20045;-77
2022/08/06 09:49:05;;;;;;;4.40;1.95;;;21.30;96.10;;;;;;5018843;28;20416;-77
2022/08/06 09:51:34;;;;;;;4.43;2.20;;;21.40;95.50;;;;;;5013582;28;20034;-77
2022/08/06 09:54:03;;;;;;;2.85;1.83;;;21.50;93.80;;;;;;5010155;28;20471;-78
2022/08/06 09:56:29;;;;;;;3.08;1.88;;;21.70;92.50;;;;;;5014593;28;20045;-77
2022/08/06 09:59:06;;;;;;;3.25;1.92;;;21.80;90.30;;;;;;4992680;28;20507;-77
2022/08/06 10:01:44;;;;;;;3.20;1.90;;;21.80;83.60;;;;;;5011321;28;20049;-77
2022/08/06 10:04:23;;;;;;;3.17;2.03;;;21.90;86.30;;;;;;5029343;28;20115;-77
2022/08/06 10:06:56;;;;;;;3.03;2.10;;;22.00;84.80;;;;;;5012863;28;20447;-76
2022/08/06 10:09:22;;;;;;;4.55;2.80;;;22.10;84.00;;;;;;5018697;28;20045;-78
2022/08/06 10:11:48;;;;;;;5.15;2.17;;;22.30;87.40;;;;;;5012477;28;20107;-77
2022/08/06 10:14:32;;;;;;;3.28;1.88;;;22.40;80.30;;;;;;5010106;28;20075;-77
2022/08/06 10:17:16;;;;;;;4.47;1.90;;;22.50;76.30;;;;;;5012609;28;20548;-79
2022/08/06 10:19:46;;;;;;;4.82;1.80;;;22.40;69.70;;;;;;5013553;28;20056;-78
2022/08/06 10:22:16;;;;;;;3.83;2.05;;;22.20;72.20;;;;;;5016746;28;20397;-77
2022/08/06 10:24:50;;;;;;;2.85;1.73;;;22.00;74.50;;;;;;5008851;28;20236;-77
2022/08/06 10:27:33;;;;;;;2.67;1.75;;;21.70;77.40;;;;;;5015911;28;20060;-77
2022/08/06 10:30:04;;;;;;;5.13;1.75;;;21.40;81.90;;;;;;5009660;28;20532;-78
2022/08/06 10:32:39;;;;;;;4.53;1.60;;;21.20;82.50;;;;;;5009496;28;20382;-78
2022/08/06 10:35:05;;;;;;;2.80;1.70;;;21.00;82.20;;;;;;4999092;28;20124;-77
2022/08/06 10:37:36;;;;;;;3.65;1.80;;;20.80;81.00;;;;;;5017664;28;20050;-78
2022/08/06 10:40:03;;;;;;;3.92;1.75;;;20.60;83.70;;;;;;5017702;28;20033;-78
2022/08/06 10:42:29;;;;;;;6.55;3.20;;;20.40;86.00;;;;;;5015523;28;20050;-78
2022/08/06 10:44:57;;;;;;;3.55;1.75;;;20.40;87.40;;;;;;5018238;28;20050;-77
2022/08/06 10:47:24;;;;;;;2.65;1.40;;;20.30;90.90;;;;;;5025084;28;20047;-76
2022/08/06 10:49:53;;;;;;;4.22;2.22;;;20.30;91.50;;;;;;5021868;28;20044;-75
2022/08/06 10:52:19;;;;;;;5.68;1.77;;;20.20;91.70;;;;;;5016002;28;20057;-76
2022/08/06 10:54:46;;;;;;;5.72;1.95;;;20.10;91.40;;;;;;5018200;28;20500;-76
2022/08/06 10:57:15;;;;;;;3.78;1.65;;;20.00;91.80;;;;;;5020982;28;20045;-78
2022/08/06 10:59:41;;;;;;;3.08;1.60;;;20.00;91.80;;;;;;5015321;28;20099;-76
2022/08/06 11:02:15;;;;;;;3.55;1.75;;;19.90;91.60;;;;;;5014071;28;20068;-77
2022/08/06 11:05:02;;;;;;;4.20;2.03;;;19.90;92.20;;;;;;5014417;28;20397;-77
2022/08/06 11:08:03;;;;;;;3.97;1.52;;;19.90;91.00;;;;;;5014645;28;20046;-77
2022/08/06 11:10:44;;;;;;;5.13;1.88;;;19.90;90.30;;;;;;5006547;28;20038;-76
2022/08/06 11:13:59;;;;;;;4.40;1.60;;;19.80;90.50;;;;;;5010996;28;20424;-77
2022/08/06 11:16:28;;;;;;;3.38;1.50;;;19.80;90.60;;;;;;5014900;28;20049;-78
2022/08/06 11:19:09;;;;;;;3.60;1.63;;;19.70;89.70;;;;;;5020025;28;20045;-77
2022/08/06 11:21:40;;;;;;;3.17;1.60;;;19.70;91.70;;;;;;5016937;28;20121;-77
2022/08/06 11:24:06;;;;;;;2.80;1.83;;;19.80;92.80;;;;;;5016367;28;20136;-77
2022/08/06 11:26:35;;;;;;;5.80;1.98;;;19.80;90.00;;;;;;4999247;28;20710;-77
2022/08/06 11:29:03;;;;;;;3.00;1.50;;;19.80;87.20;;;;;;5033309;28;20044;-80
2022/08/06 11:31:36;;;;;;;4.03;1.90;;;19.80;88.20;;;;;;5013864;28;20048;-77
2022/08/06 11:34:09;;;;;;;4.47;2.00;;;19.80;85.40;;;;;;5016411;28;20130;-77
2022/08/06 11:36:47;;;;;;;2.75;1.85;;;19.80;82.20;;;;;;5011940;28;20069;-77
2022/08/06 11:39:13;;;;;;;4.70;1.90;;;19.90;90.50;;;;;;5013709;28;20060;-77
2022/08/06 11:41:55;;;;;;;4.63;2.00;;;20.00;93.80;;;;;;5009949;28;20045;-77
2022/08/06 11:44:37;;;;;;;5.20;2.20;;;20.10;92.40;;;;;;5010142;28;20053;-77
2022/08/06 11:47:10;;;;;;;3.10;1.73;;;20.20;94.40;;;;;;5016096;28;20045;-77
2022/08/06 11:49:47;;;;;;;3.35;1.70;;;20.40;93.70;;;;;;5028581;28;20046;-77
2022/08/06 11:52:42;;;;;;;3.72;1.58;;;20.50;89.90;;;;;;5007400;28;20424;-78
2022/08/06 11:55:13;;;;;;;3.13;1.90;;;20.50;86.00;;;;;;5009981;28;20121;-77
2022/08/06 11:57:40;;;;;;;4.75;2.00;;;20.40;84.70;;;;;;5008274;28;20503;-75
2022/08/06 12:00:10;;;;;;;3.40;2.00;;;20.30;87.40;;;;;;4995972;28;20071;-77
2022/08/06 12:02:42;;;;;;;3.75;1.98;;;20.10;90.30;;;;;;5013186;28;20519;-76
2022/08/06 12:05:27;;;;;;;4.25;2.00;;;20.10;90.50;;;;;;5018297;28;20050;-77
2022/08/06 12:08:18;;;;;;;4.22;2.00;;;20.00;91.40;;;;;;5011351;28;20132;-77
2022/08/06 12:11:21;;;;;;;3.78;1.88;;;20.00;93.60;;;;;;5016637;28;20065;-77
2022/08/06 12:13:47;;;;;;;7.10;2.03;;;20.00;93.60;;;;;;5012993;28;20548;-76
2022/08/06 12:16:39;;;;;;;3.92;2.30;;;19.90;92.40;;;;;;5013272;28;20057;-77
2022/08/06 12:19:10;;;;;;;4.43;2.30;;;20.00;94.90;;;;;;5010779;28;20394;-77
2022/08/06 12:21:38;;;;;;;3.10;1.90;;;20.00;96.80;;;;;;5005935;28;20579;-77
2022/08/06 12:24:05;;;;;;;4.18;2.30;;;20.20;94.00;;;;;;5019659;28;20057;-78
2022/08/06 12:26:32;;;;;;;5.35;2.30;;;20.40;95.30;;;;;;5017194;28;20054;-77
2022/08/06 12:29:04;;;;;;;4.55;2.35;;;20.60;91.20;;;;;;5011573;28;20064;-77
2022/08/06 12:31:36;;;;;;;3.55;2.47;;;20.80;88.80;;;;;;5011849;28;20452;-78
2022/08/06 12:34:02;;;;;;;4.13;1.90;;;20.90;86.30;;;;;;5008984;28;20139;-77
2022/08/06 12:36:30;;;;;;;3.33;1.80;;;21.00;88.90;;;;;;5002386;28;20068;-77
2022/08/06 12:38:57;;;;;;;3.25;2.00;;;21.20;88.90;;;;;;5018976;28;20075;-78
2022/08/06 12:41:34;;;;;;;4.53;2.53;;;21.50;80.10;;;;;;5011861;28;20060;-76
2022/08/06 12:44:00;;;;;;;2.50;1.63;;;21.70;80.50;;;;;;5000533;28;20144;-76
2022/08/06 12:46:25;;;;;;;4.22;2.63;;;21.90;80.00;;;;;;4983550;28;20433;-76
2022/08/06 12:48:54;;;;;;;3.58;2.10;;;22.00;80.70;;;;;;5009536;28;20269;-77
2022/08/06 12:51:20;;;;;;;3.03;1.93;;;21.90;76.70;;;;;;5011832;28;20135;-79
2022/08/06 12:53:49;;;;;;;4.00;2.35;;;21.80;75.90;;;;;;5014636;28;20050;-76
2022/08/06 12:56:20;;;;;;;3.10;2.33;;;21.60;76.10;;;;;;5015477;28;20528;-76
2022/08/06 12:58:46;;;;;;;3.92;2.03;;;21.40;80.10;;;;;;5012859;28;20159;-77
2022/08/06 13:01:17;;;;;;;4.78;2.63;;;21.20;76.80;;;;;;5014934;28;20093;-77
2022/08/06 13:03:46;;;;;;;3.78;2.55;;;21.10;81.50;;;;;;5009100;28;20631;-77
2022/08/06 13:06:14;;;;;;;3.55;2.33;;;20.90;84.60;;;;;;5011208;28;20091;-76
2022/08/06 13:08:42;;;;;;;3.92;2.30;;;20.80;87.70;;;;;;5029836;28;20571;-76
2022/08/06 13:11:08;;;;;;;3.55;2.40;;;20.80;89.50;;;;;;5003777;28;20075;-76
2022/08/06 13:13:39;;;;;;;5.88;2.53;;;20.80;90.60;;;;;;4997271;28;20049;-77
2022/08/06 13:16:13;;;;;;;5.35;2.22;;;20.90;85.00;;;;;;5008002;28;20045;-77